Time;durP1;ratioP1;P1;durP2;ratioP2;P2;SDS_P1;SDS_P2;PMS_P1;PMS_P2;Temp;Humidity;BMP_temperature;BMP_pressure;BME280_temperature;BME280_humidity;BME280_pressure;Samples;Min_cycle;Max_cycle;Signal;HPM_P1;HPM_P2
2024/02/19 00:09:22;;;;;;;21.4;13;;;;;;;-1.5;87.12;;;;;
2024/02/19 00:19:22;;;;;;;21.4;13;;;;;;;-1.52;86.84;;;;;
2024/02/19 00:30:22;;;;;;;21.4;13;;;;;;;-1.55;86.78;;;;;
2024/02/19 00:41:22;;;;;;;26.8;14.4;;;;;;;-1.59;86.32;;;;;
2024/02/19 00:52:22;;;;;;;26.8;14.4;;;;;;;-1.63;86.32;;;;;
2024/02/19 01:02:23;;;;;;;26.8;14.4;;;;;;;-1.74;86.61;;;;;
2024/02/19 01:12:22;;;;;;;23.7;14.3;;;;;;;-1.76;86.53;;;;;
2024/02/19 01:23:22;;;;;;;23.7;14.3;;;;;;;-1.88;86.8;;;;;
2024/02/19 01:33:22;;;;;;;23.7;14.3;;;;;;;-2.14;88.25;;;;;
2024/02/19 01:43:22;;;;;;;25.1;14.4;;;;;;;-2.12;87.49;;;;;
2024/02/19 01:54:22;;;;;;;25.1;14.4;;;;;;;-2.19;87.38;;;;;
2024/02/19 02:05:22;;;;;;;25.1;14.4;;;;;;;-2.17;88.12;;;;;
2024/02/19 02:16:22;;;;;;;25.4;13.7;;;;;;;-2.16;87.61;;;;;
2024/02/19 02:26:22;;;;;;;25.4;13.7;;;;;;;-2.2;87.82;;;;;
2024/02/19 02:36:22;;;;;;;25.4;13.7;;;;;;;-2.18;87.68;;;;;
2024/02/19 02:46:22;;;;;;;23.1;14.8;;;;;;;-2.21;87.85;;;;;
2024/02/19 02:56:22;;;;;;;23.1;14.8;;;;;;;-2.07;88.14;;;;;
2024/02/19 03:06:22;;;;;;;27.6;16.7;;;;;;;-1.88;88.04;;;;;
2024/02/19 03:17:22;;;;;;;27.6;16.7;;;;;;;-1.86;87.39;;;;;
2024/02/19 03:28:23;;;;;;;27.6;16.7;;;;;;;-1.88;88.12;;;;;
2024/02/19 03:38:24;;;;;;;28.7;15.4;;;;;;;-1.57;88.27;;;;;
2024/02/19 03:48:22;;;;;;;28.7;15.4;;;;;;;-1.31;88.37;;;;;
2024/02/19 03:58:22;;;;;;;28.7;15.4;;;;;;;-1.08;87.95;;;;;
2024/02/19 04:09:22;;;;;;;30.7;17;;;;;;;-0.99;88.04;;;;;
2024/02/19 04:20:22;;;;;;;30.7;17;;;;;;;-0.75;88.05;;;;;
2024/02/19 04:30:22;;;;;;;30.7;17;;;;;;;-0.51;88.02;;;;;
2024/02/19 04:40:22;;;;;;;25.2;14.6;;;;;;;-0.47;87.66;;;;;
2024/02/19 04:51:22;;;;;;;25.2;14.6;;;;;;;-0.17;87.61;;;;;
2024/02/19 05:01:22;;;;;;;25.2;14.6;;;;;;;-0.16;87.24;;;;;
2024/02/19 05:12:22;;;;;;;28.1;17.2;;;;;;;0.06;87.89;;;;;
2024/02/19 05:22:23;;;;;;;28.1;17.2;;;;;;;0.24;87.11;;;;;
2024/02/19 05:33:22;;;;;;;28.1;17.2;;;;;;;0.13;86.75;;;;;
2024/02/19 05:43:22;;;;;;;21.5;13.7;;;;;;;0.34;86.67;;;;;
2024/02/19 05:53:22;;;;;;;21.5;13.7;;;;;;;0.28;86.89;;;;;
2024/02/19 06:03:24;;;;;;;21.5;13.7;;;;;;;0.33;86.94;;;;;
2024/02/19 06:14:22;;;;;;;26.3;15.4;;;;;;;0.47;86.68;;;;;
2024/02/19 06:24:22;;;;;;;26.3;15.4;;;;;;;0.64;86.87;;;;;
2024/02/19 06:35:22;;;;;;;26.3;15.4;;;;;;;0.78;86.28;;;;;
2024/02/19 06:46:22;;;;;;;32.8;18.2;;;;;;;1.09;86.17;;;;;
2024/02/19 06:57:22;;;;;;;32.8;18.2;;;;;;;1.26;86.17;;;;;
2024/02/19 07:08:23;;;;;;;25;16.5;;;;;;;1.67;86.62;;;;;
2024/02/19 07:18:24;;;;;;;25;16.5;;;;;;;2.03;85.34;;;;;
2024/02/19 07:28:22;;;;;;;25;16.5;;;;;;;2.17;84.78;;;;;
2024/02/19 07:38:22;;;;;;;31.1;16.1;;;;;;;2.29;82.82;;;;;
2024/02/19 07:49:22;;;;;;;31.1;16.1;;;;;;;2.38;84.1;;;;;
2024/02/19 07:59:22;;;;;;;31.1;16.1;;;;;;;2.49;84.29;;;;;
2024/02/19 08:09:22;;;;;;;27.6;16;;;;;;;2.66;85.45;;;;;
2024/02/19 08:19:22;;;;;;;27.6;16;;;;;;;3.13;85.69;;;;;
2024/02/19 08:30:23;;;;;;;27.6;16;;;;;;;3.71;85.13;;;;;
2024/02/19 08:41:24;;;;;;;28.2;18.4;;;;;;;4.4;85.31;;;;;
2024/02/19 08:51:22;;;;;;;28.2;18.4;;;;;;;5.24;85.45;;;;;
2024/02/19 09:01:23;;;;;;;28.2;18.4;;;;;;;5.76;84.46;;;;;
2024/02/19 09:11:22;;;;;;;34.7;25.7;;;;;;;6.88;84.9;;;;;
2024/02/19 09:22:22;;;;;;;34.7;25.7;;;;;;;7.32;81.05;;;;;
2024/02/19 09:32:22;;;;;;;34.7;25.7;;;;;;;7.83;80.39;;;;;
2024/02/19 09:42:22;;;;;;;13.2;9.6;;;;;;;8.49;79.08;;;;;
2024/02/19 09:52:22;;;;;;;13.2;9.6;;;;;;;8.92;78.74;;;;;
2024/02/19 10:02:22;;;;;;;13.2;9.6;;;;;;;9.35;76.2;;;;;
2024/02/19 10:13:23;;;;;;;16;10.3;;;;;;;9.61;72.93;;;;;
2024/02/19 10:23:23;;;;;;;16;10.3;;;;;;;9.8;73.35;;;;;
2024/02/19 10:33:22;;;;;;;16;10.3;;;;;;;10;71.24;;;;;
2024/02/19 10:44:23;;;;;;;7.2;4.5;;;;;;;10.41;70.35;;;;;
2024/02/19 10:54:22;;;;;;;7.2;4.5;;;;;;;10.84;68.58;;;;;
2024/02/19 11:05:22;;;;;;;5.9;3.4;;;;;;;11.11;67.68;;;;;
2024/02/19 11:16:22;;;;;;;5.9;3.4;;;;;;;11.22;68.07;;;;;
2024/02/19 11:27:22;;;;;;;5.9;3.4;;;;;;;10.93;67.83;;;;;
2024/02/19 11:38:22;;;;;;;4.1;2.2;;;;;;;10.8;68.44;;;;;
2024/02/19 11:48:22;;;;;;;4.1;2.2;;;;;;;10.77;68.36;;;;;
2024/02/19 11:59:22;;;;;;;4.1;2.2;;;;;;;10.84;68.78;;;;;
2024/02/19 12:09:22;;;;;;;4.2;2.6;;;;;;;10.84;67.7;;;;;
2024/02/19 12:20:22;;;;;;;4.2;2.6;;;;;;;10.55;69.27;;;;;
2024/02/19 12:31:23;;;;;;;4.2;2.6;;;;;;;10.25;69.5;;;;;
2024/02/19 12:42:23;;;;;;;4.8;2.8;;;;;;;10.08;69.69;;;;;
2024/02/19 12:53:22;;;;;;;4.8;2.8;;;;;;;9.93;70.48;;;;;
2024/02/19 13:03:24;;;;;;;4.8;2.8;;;;;;;9.9;70.92;;;;;
2024/02/19 13:14:24;;;;;;;4.1;2.2;;;;;;;10.04;70.71;;;;;
2024/02/19 13:25:22;;;;;;;4.1;2.2;;;;;;;10.04;70.94;;;;;
2024/02/19 13:35:22;;;;;;;3.9;2.1;;;;;;;10.31;70.83;;;;;
2024/02/19 13:46:23;;;;;;;3.9;2.1;;;;;;;10.04;71.7;;;;;
2024/02/19 13:56:23;;;;;;;3.9;2.1;;;;;;;9.67;74.08;;;;;
2024/02/19 14:07:24;;;;;;;4.6;2.4;;;;;;;9.56;76.49;;;;;
2024/02/19 14:17:23;;;;;;;4.6;2.4;;;;;;;9.31;77.6;;;;;
2024/02/19 14:28:23;;;;;;;4.6;2.4;;;;;;;8.88;79;;;;;
2024/02/19 14:38:23;;;;;;;4.4;2.7;;;;;;;8.75;79.42;;;;;
2024/02/19 14:48:23;;;;;;;4.4;2.7;;;;;;;8.49;82.05;;;;;
2024/02/19 14:58:24;;;;;;;4.4;2.7;;;;;;;7.87;85.62;;;;;
2024/02/19 15:09:23;;;;;;;5.1;3;;;;;;;7.51;86.81;;;;;
2024/02/19 15:19:24;;;;;;;5.1;3;;;;;;;7.54;87.57;;;;;
2024/02/19 15:30:23;;;;;;;5.1;3;;;;;;;7.32;88.77;;;;;
2024/02/19 15:41:23;;;;;;;6.1;3.6;;;;;;;7.32;88.47;;;;;
2024/02/19 15:51:23;;;;;;;6.1;3.6;;;;;;;7.22;88.7;;;;;
2024/02/19 16:02:23;;;;;;;6.1;3.6;;;;;;;7.12;89.31;;;;;
2024/02/19 16:13:23;;;;;;;13.5;5.3;;;;;;;7.02;89.89;;;;;
2024/02/19 16:23:23;;;;;;;13.5;5.3;;;;;;;6.96;90.33;;;;;
2024/02/19 16:33:23;;;;;;;13.5;5.3;;;;;;;7.05;90.09;;;;;
2024/02/19 16:44:24;;;;;;;10.5;6.3;;;;;;;7.11;90.22;;;;;
2024/02/19 16:55:23;;;;;;;10.5;6.3;;;;;;;7.18;89.81;;;;;
2024/02/19 17:05:23;;;;;;;12.5;7.4;;;;;;;7.16;89.2;;;;;
2024/02/19 17:15:23;;;;;;;12.5;7.4;;;;;;;7.08;86.76;;;;;
2024/02/19 17:25:23;;;;;;;12.5;7.4;;;;;;;7.14;86.27;;;;;
2024/02/19 17:35:23;;;;;;;7;4.3;;;;;;;6.93;85.3;;;;;
2024/02/19 17:46:23;;;;;;;7;4.3;;;;;;;6.9;85.78;;;;;
2024/02/19 17:57:23;;;;;;;7;4.3;;;;;;;6.88;86.78;;;;;
2024/02/19 18:08:23;;;;;;;6.8;3.6;;;;;;;6.84;86.55;;;;;
2024/02/19 18:18:23;;;;;;;6.8;3.6;;;;;;;6.77;85.01;;;;;
2024/02/19 18:29:24;;;;;;;6.8;3.6;;;;;;;6.72;84.01;;;;;
2024/02/19 18:40:23;;;;;;;7;3.7;;;;;;;6.86;84.07;;;;;
2024/02/19 18:50:23;;;;;;;7;3.7;;;;;;;6.83;84.61;;;;;
2024/02/19 19:00:23;;;;;;;7;3.7;;;;;;;6.78;84.62;;;;;
2024/02/19 19:10:23;;;;;;;7.3;4;;;;;;;6.82;84.1;;;;;
2024/02/19 19:21:23;;;;;;;7.3;4;;;;;;;6.83;82.94;;;;;
2024/02/19 19:32:25;;;;;;;7.3;4;;;;;;;6.89;82.94;;;;;
2024/02/19 19:42:25;;;;;;;5.2;2.9;;;;;;;6.9;83.02;;;;;
2024/02/19 19:52:24;;;;;;;5.2;2.9;;;;;;;6.8;83.46;;;;;
2024/02/19 20:03:23;;;;;;;5.2;2.9;;;;;;;6.77;83.33;;;;;
2024/02/19 20:14:23;;;;;;;8.7;4.4;;;;;;;6.86;83.35;;;;;
2024/02/19 20:25:23;;;;;;;8.7;4.4;;;;;;;6.84;82.86;;;;;
2024/02/19 20:36:23;;;;;;;9.5;4.6;;;;;;;6.79;82.7;;;;;
2024/02/19 20:46:23;;;;;;;9.5;4.6;;;;;;;6.82;82.32;;;;;
2024/02/19 20:56:23;;;;;;;9.5;4.6;;;;;;;6.83;82.58;;;;;
2024/02/19 21:06:23;;;;;;;9.5;4;;;;;;;6.85;82.76;;;;;
2024/02/19 21:17:27;;;;;;;9.5;4;;;;;;;6.73;82.92;;;;;
2024/02/19 21:28:23;;;;;;;9.5;4;;;;;;;6.78;82.9;;;;;
2024/02/19 21:38:23;;;;;;;6.8;3.8;;;;;;;6.75;84.15;;;;;
2024/02/19 21:48:23;;;;;;;6.8;3.8;;;;;;;6.57;87.04;;;;;
2024/02/19 21:58:23;;;;;;;6.8;3.8;;;;;;;6.57;87.37;;;;;
2024/02/19 22:09:23;;;;;;;10.2;5.4;;;;;;;6.6;87.76;;;;;
2024/02/19 22:19:23;;;;;;;10.2;5.4;;;;;;;6.59;88.03;;;;;
2024/02/19 22:29:23;;;;;;;10.2;5.4;;;;;;;6.64;88.01;;;;;
2024/02/19 22:39:23;;;;;;;12.7;7.7;;;;;;;6.62;88.59;;;;;
2024/02/19 22:50:23;;;;;;;12.7;7.7;;;;;;;6.7;88.7;;;;;
2024/02/19 23:01:23;;;;;;;12.7;7.7;;;;;;;6.63;88.99;;;;;
2024/02/19 23:12:23;;;;;;;11.1;6.7;;;;;;;6.63;88.97;;;;;
2024/02/19 23:22:23;;;;;;;11.1;6.7;;;;;;;6.67;88.24;;;;;
2024/02/19 23:32:23;;;;;;;11.1;6.7;;;;;;;6.75;88;;;;;
2024/02/19 23:42:23;;;;;;;9.9;5.4;;;;;;;6.72;88.19;;;;;
2024/02/19 23:53:23;;;;;;;9.9;5.4;;;;;;;6.69;88.18;;;;;
